Terminal Aerodrome Forecast
Issued by NWS Burlington, VT

Home | Current Version | Previous Version | Text Only | Print | Product List | Glossary On
Versions: 1 2 3 4 5 6 7 8 9 10 11 12 13 14 15 16
000
FTUS41 KBTV 211100
TAFBTV
TAF
KBTV 211120Z 2112/2212 20012G20KT P6SM BKN100
     FM220000 18005KT P6SM OVC080
     FM220400 17004KT P6SM VCSH OVC080=

USA.gov is the U.S. government's official web portal to all federal, state and local government web resources and services.